createdAt,value
2023-04-27T00:00:47.223Z,72.32
2023-04-27T00:03:15.978Z,77.55
2023-04-27T00:05:44.166Z,80.51
2023-04-27T00:08:12.001Z,78.81
2023-04-27T00:10:39.804Z,79.14
2023-04-27T00:13:07.587Z,77.25
2023-04-27T00:15:36.713Z,77.88
2023-04-27T00:18:04.805Z,77.91
2023-04-27T00:20:33.802Z,77.27
2023-04-27T00:23:01.461Z,80.33
2023-04-27T00:25:29.413Z,77.37
2023-04-27T00:27:57.004Z,74.72
2023-04-27T00:30:26.108Z,77.33
2023-04-27T00:32:56.124Z,76.08
2023-04-27T00:35:24.404Z,80.11
2023-04-27T00:37:54.194Z,78.52
2023-04-27T00:40:22.190Z,74.82
2023-04-27T00:42:49.887Z,74.27
2023-04-27T00:45:17.589Z,75.20
2023-04-27T00:47:45.839Z,72.62
2023-04-27T00:50:15.592Z,76.37
2023-04-27T00:52:43.779Z,74.46
2023-04-27T00:55:11.678Z,73.08
2023-04-27T00:57:41.289Z,73.76
2023-04-27T01:00:11.855Z,76.47
2023-04-27T01:02:40.864Z,76.72
2023-04-27T01:05:09.365Z,75.23
2023-04-27T01:07:40.134Z,77.22
2023-04-27T01:10:08.972Z,76.09
2023-04-27T01:12:36.968Z,75.00
2023-04-27T01:15:07.858Z,76.56
2023-04-27T01:17:35.744Z,76.08
2023-04-27T01:20:07.571Z,78.13
2023-04-27T01:22:36.147Z,78.47
2023-04-27T01:25:06.319Z,80.43
2023-04-27T01:27:33.952Z,79.70
2023-04-27T01:30:01.593Z,80.92
2023-04-27T01:32:29.422Z,84.01
2023-04-27T01:34:57.104Z,85.66
2023-04-27T01:37:27.683Z,86.44
2023-04-27T01:39:55.326Z,87.28
2023-04-27T01:42:24.301Z,87.30
2023-04-27T01:44:51.952Z,87.81
2023-04-27T01:47:19.553Z,87.31
2023-04-27T01:49:47.171Z,87.63
2023-04-27T01:52:14.803Z,90.78
2023-04-27T01:54:42.438Z,92.13
2023-04-27T01:57:10.955Z,94.51
2023-04-27T01:59:39.906Z,96.44
2023-04-27T02:02:07.972Z,96.72
2023-04-27T02:04:37.827Z,97.35
2023-04-27T02:07:05.616Z,98.67
2023-04-27T02:09:33.359Z,100.00
2023-04-27T02:12:02.593Z,100.00
2023-04-27T02:14:30.404Z,100.00
2023-04-27T02:16:59.412Z,100.00
2023-04-27T02:19:27.063Z,100.00
2023-04-27T02:21:54.756Z,100.00
2023-04-27T02:24:22.952Z,100.00
2023-04-27T02:26:50.585Z,100.00
2023-04-27T02:29:19.486Z,100.00
2023-04-27T02:31:47.700Z,100.00
2023-04-27T02:34:16.930Z,99.23
2023-04-27T02:36:44.591Z,97.57
2023-04-27T02:39:12.643Z,99.63
2023-04-27T02:41:40.614Z,100.00
2023-04-27T02:44:09.128Z,100.00
2023-04-27T02:46:36.826Z,100.00
2023-04-27T02:49:04.440Z,100.00
2023-04-27T02:51:33.396Z,100.00
2023-04-27T02:54:01.192Z,100.00
2023-04-27T02:56:29.227Z,100.00
2023-04-27T02:58:57.267Z,100.00
2023-04-27T03:01:25.248Z,100.00
2023-04-27T03:03:53.189Z,100.00
2023-04-27T03:06:20.847Z,100.00
2023-04-27T03:08:49.834Z,100.00
2023-04-27T03:11:17.541Z,100.00
2023-04-27T03:13:45.202Z,100.00
2023-04-27T03:16:13.025Z,100.00
2023-04-27T03:18:41.192Z,100.00
2023-04-27T03:21:10.640Z,100.00
2023-04-27T03:23:38.623Z,100.00
2023-04-27T03:26:12.075Z,100.00
2023-04-27T03:28:39.996Z,100.00
2023-04-27T03:31:08.575Z,100.00
2023-04-27T03:33:37.394Z,100.00
2023-04-27T03:36:06.695Z,98.29
2023-04-27T03:38:35.499Z,100.00
2023-04-27T03:41:03.135Z,100.00
2023-04-27T03:43:32.457Z,100.00
2023-04-27T03:46:00.310Z,100.00
2023-04-27T03:48:27.991Z,100.00
2023-04-27T03:50:56.551Z,100.00
2023-04-27T03:53:24.221Z,99.56
2023-04-27T03:55:52.433Z,100.00
2023-04-27T03:58:20.399Z,99.22
2023-04-27T04:01:14.704Z,100.00
2023-04-27T04:03:43.390Z,96.21
2023-04-27T04:06:12.679Z,96.57
2023-04-27T04:08:40.534Z,96.88
2023-04-27T04:11:08.159Z,99.61
2023-04-27T04:13:37.075Z,100.00
2023-04-27T04:16:05.853Z,100.00
2023-04-27T04:18:36.042Z,100.00
2023-04-27T04:21:04.212Z,100.00
2023-04-27T04:23:32.862Z,98.93
2023-04-27T04:26:02.084Z,94.96
2023-04-27T04:28:33.830Z,92.64
2023-04-27T04:31:02.736Z,95.91
2023-04-27T04:33:31.147Z,96.24
2023-04-27T04:36:00.384Z,99.70
2023-04-27T04:38:28.421Z,100.00
2023-04-27T04:40:56.088Z,100.00
2023-04-27T04:43:23.833Z,100.00
2023-04-27T04:45:51.612Z,100.00
2023-04-27T04:48:20.287Z,100.00
2023-04-27T04:50:48.104Z,100.00
2023-04-27T04:53:17.086Z,93.84
2023-04-27T04:55:44.825Z,84.65
2023-04-27T04:58:12.435Z,84.56
2023-04-27T05:00:40.046Z,83.71
2023-04-27T05:03:08.048Z,82.94
2023-04-27T05:05:35.827Z,81.58
2023-04-27T05:08:03.518Z,78.77
2023-04-27T05:10:32.547Z,80.30
2023-04-27T05:13:00.161Z,80.21
2023-04-27T05:15:27.800Z,76.02
2023-04-27T05:17:55.430Z,77.28
2023-04-27T05:20:23.498Z,78.00
2023-04-27T05:22:51.407Z,78.67
2023-04-27T05:25:19.304Z,81.36
2023-04-27T05:27:48.264Z,82.95
2023-04-27T05:30:16.025Z,79.65
2023-04-27T05:32:43.642Z,76.27
2023-04-27T05:35:11.337Z,78.43
2023-04-27T05:37:39.033Z,76.57
2023-04-27T05:40:09.632Z,76.97
2023-04-27T05:42:37.349Z,74.25
2023-04-27T05:45:07.828Z,76.63
2023-04-27T05:47:35.573Z,87.18
2023-04-27T05:50:03.693Z,91.28
2023-04-27T05:52:31.661Z,93.74
2023-04-27T05:54:59.721Z,94.16
2023-04-27T05:57:28.022Z,94.06
2023-04-27T05:59:56.188Z,94.62
2023-04-27T06:02:25.301Z,93.53
2023-04-27T06:04:53.102Z,91.30
2023-04-27T06:07:21.335Z,89.07
2023-04-27T06:09:48.952Z,91.90
2023-04-27T06:12:16.664Z,92.68
2023-04-27T06:14:44.242Z,89.58
2023-04-27T06:17:11.929Z,90.60
2023-04-27T06:19:40.973Z,89.33
2023-04-27T06:22:08.555Z,86.45
2023-04-27T06:24:36.715Z,82.95
2023-04-27T06:27:04.533Z,81.98
2023-04-27T06:29:32.204Z,88.38
2023-04-27T06:32:00.083Z,82.16
2023-04-27T06:34:27.966Z,84.13
2023-04-27T06:36:56.925Z,83.93
2023-04-27T06:39:24.524Z,84.18
2023-04-27T06:41:52.158Z,83.49
2023-04-27T06:44:19.911Z,85.29
2023-04-27T06:46:47.547Z,82.49
2023-04-27T06:49:15.442Z,84.24
2023-04-27T06:51:43.463Z,80.95
2023-04-27T06:54:12.503Z,75.97
2023-04-27T06:56:40.178Z,79.26
2023-04-27T06:59:08.601Z,74.74
2023-04-27T07:01:36.537Z,72.03
2023-04-27T07:04:04.622Z,73.63
2023-04-27T07:06:32.638Z,72.98
2023-04-27T07:09:00.643Z,71.25
2023-04-27T07:11:29.577Z,76.79
2023-04-27T07:13:57.219Z,76.23
2023-04-27T07:16:24.938Z,77.56
2023-04-27T07:18:52.636Z,76.37
2023-04-27T07:21:20.526Z,76.38
2023-04-27T07:23:48.123Z,73.53
2023-04-27T07:26:15.893Z,74.43
2023-04-27T07:28:44.905Z,72.39
2023-04-27T07:31:12.973Z,69.37
2023-04-27T07:33:40.855Z,68.61
2023-04-27T07:36:08.829Z,63.54
2023-04-27T07:38:38.348Z,62.65
2023-04-27T07:41:07.272Z,61.46
2023-04-27T07:43:35.112Z,60.81
2023-04-27T07:46:04.435Z,60.30
2023-04-27T07:48:32.613Z,57.18
2023-04-27T07:51:00.199Z,57.01
2023-04-27T07:53:27.811Z,55.61
2023-04-27T07:55:55.447Z,55.69
2023-04-27T07:58:23.213Z,58.09
2023-04-27T08:00:50.855Z,54.93
2023-04-27T08:03:19.965Z,60.06
2023-04-27T08:05:47.821Z,55.19
2023-04-27T08:08:15.993Z,56.63
2023-04-27T08:10:43.845Z,55.46
2023-04-27T08:13:12.081Z,57.29
2023-04-27T08:15:39.849Z,56.30
2023-04-27T08:18:07.548Z,55.53
2023-04-27T08:20:36.556Z,54.29
2023-04-27T08:23:04.209Z,53.06
2023-04-27T08:25:31.873Z,53.57
2023-04-27T08:27:59.440Z,51.37
2023-04-27T08:30:27.065Z,52.61
2023-04-27T08:32:54.960Z,52.70
2023-04-27T08:35:22.716Z,51.85
2023-04-27T08:37:51.768Z,50.64
2023-04-27T08:40:20.850Z,50.74
2023-04-27T08:42:56.210Z,51.36
2023-04-27T08:45:24.385Z,49.97
2023-04-27T08:47:52.809Z,48.58
2023-04-27T08:50:21.268Z,48.05
2023-04-27T08:52:52.086Z,46.20
2023-04-27T08:55:20.170Z,47.29
2023-04-27T08:57:58.320Z,47.84
2023-04-27T09:00:27.012Z,46.39
2023-04-27T09:02:55.042Z,46.05
2023-04-27T09:05:23.972Z,43.81
2023-04-27T09:08:00.713Z,43.89
2023-04-27T09:10:29.930Z,45.10
2023-04-27T09:12:59.116Z,47.42
2023-04-27T09:15:26.823Z,45.69
2023-04-27T09:17:56.227Z,45.72
2023-04-27T09:20:26.821Z,45.96
2023-04-27T09:22:55.964Z,45.68
2023-04-27T09:25:26.665Z,44.00
2023-04-27T09:27:54.613Z,45.30
2023-04-27T09:30:22.540Z,44.44
2023-04-27T09:32:54.430Z,45.67
2023-04-27T09:35:24.163Z,44.75
2023-04-27T09:37:53.769Z,43.78
2023-04-27T09:40:26.479Z,43.58
2023-04-27T09:42:57.179Z,43.71
2023-04-27T09:45:25.514Z,44.37
2023-04-27T09:47:53.801Z,41.99
2023-04-27T09:50:22.516Z,41.39
2023-04-27T09:52:50.410Z,42.64
2023-04-27T09:55:22.157Z,41.40
2023-04-27T09:57:59.925Z,41.07
2023-04-27T10:00:43.409Z,42.26
2023-04-27T10:03:23.163Z,41.45
2023-04-27T10:06:26.537Z,40.89
2023-04-27T10:08:54.244Z,41.69
2023-04-27T10:11:23.052Z,40.07
2023-04-27T10:13:56.281Z,41.81
2023-04-27T10:16:24.046Z,42.17
2023-04-27T10:18:54.005Z,40.55
2023-04-27T10:21:22.053Z,40.34
2023-04-27T10:23:51.250Z,39.23
2023-04-27T10:26:26.048Z,39.65
2023-04-27T10:29:07.501Z,39.85
2023-04-27T10:31:35.809Z,39.48
2023-04-27T10:34:08.466Z,39.52
2023-04-27T10:36:37.951Z,40.41
2023-04-27T10:39:16.127Z,40.36
2023-04-27T10:41:52.093Z,38.43
2023-04-27T10:44:27.094Z,39.05
2023-04-27T10:46:55.986Z,38.09
2023-04-27T10:49:24.163Z,38.32
2023-04-27T10:51:52.455Z,36.44
2023-04-27T10:54:20.283Z,34.80
2023-04-27T10:56:48.219Z,36.41
2023-04-27T10:59:16.266Z,35.94
2023-04-27T11:01:50.027Z,36.06
2023-04-27T11:04:18.541Z,38.20
2023-04-27T11:06:47.112Z,37.88
2023-04-27T11:09:15.705Z,35.48
2023-04-27T11:11:46.809Z,35.46
2023-04-27T11:14:21.616Z,35.34
2023-04-27T11:16:51.086Z,34.27
2023-04-27T11:19:18.719Z,34.35
2023-04-27T11:21:46.523Z,33.72
2023-04-27T11:24:15.553Z,32.77
2023-04-27T11:26:43.345Z,34.60
2023-04-27T11:29:13.860Z,33.55
2023-04-27T11:31:47.378Z,32.62
2023-04-27T11:34:19.722Z,33.36
2023-04-27T11:37:07.113Z,33.84
2023-04-27T11:39:42.965Z,34.04
2023-04-27T11:42:19.051Z,33.39
2023-04-27T11:44:53.151Z,33.46
2023-04-27T11:47:22.384Z,36.82
2023-04-27T11:49:52.845Z,34.07
2023-04-27T11:52:20.725Z,34.50
2023-04-27T11:54:49.612Z,33.25
2023-04-27T11:57:17.446Z,32.48
2023-04-27T11:59:45.118Z,32.49
2023-04-27T12:02:12.783Z,32.85
2023-04-27T12:04:40.731Z,32.71
2023-04-27T12:07:10.214Z,31.32
2023-04-27T12:09:37.830Z,30.52
2023-04-27T12:12:06.371Z,31.05
2023-04-27T12:14:34.061Z,32.42
2023-04-27T12:17:02.007Z,33.58
2023-04-27T12:19:30.471Z,34.06
2023-04-27T12:21:58.513Z,32.31
2023-04-27T12:24:27.739Z,32.60
2023-04-27T12:26:55.483Z,34.85
2023-04-27T12:29:24.415Z,34.81
2023-04-27T12:31:52.256Z,33.66
2023-04-27T12:34:20.113Z,32.34
2023-04-27T12:36:47.952Z,34.95
2023-04-27T12:39:17.129Z,33.84
2023-04-27T12:41:47.132Z,33.89
2023-04-27T12:44:16.539Z,33.83
2023-04-27T12:46:45.107Z,34.01
2023-04-27T12:49:13.393Z,31.31
2023-04-27T12:51:41.317Z,34.11
2023-04-27T12:54:10.052Z,32.33
2023-04-27T12:56:37.762Z,34.47
2023-04-27T12:59:06.816Z,33.90
2023-04-27T13:01:34.920Z,33.56
2023-04-27T13:04:05.530Z,32.54
2023-04-27T13:06:33.565Z,34.56
2023-04-27T13:09:01.305Z,34.74
2023-04-27T13:11:29.031Z,32.74
2023-04-27T13:13:56.641Z,33.80
2023-04-27T13:16:26.413Z,34.10
2023-04-27T13:18:55.467Z,33.77
2023-04-27T13:21:23.367Z,32.72
2023-04-27T13:23:53.592Z,33.48
2023-04-27T13:26:22.376Z,33.75
2023-04-27T13:28:50.136Z,33.11
2023-04-27T13:31:17.889Z,33.17
2023-04-27T13:33:47.005Z,31.43
2023-04-27T13:36:14.698Z,34.01
2023-04-27T13:38:42.707Z,33.70
2023-04-27T13:41:10.335Z,31.86
2023-04-27T13:43:37.966Z,35.90
2023-04-27T13:46:05.800Z,34.68
2023-04-27T13:48:33.481Z,34.60
2023-04-27T13:51:02.466Z,33.45
2023-04-27T13:53:30.213Z,33.36
2023-04-27T13:55:58.914Z,33.63
2023-04-27T13:58:28.480Z,35.16
2023-04-27T14:00:56.456Z,34.02
2023-04-27T14:03:24.531Z,35.35
2023-04-27T14:05:52.192Z,34.57
2023-04-27T14:08:21.687Z,35.34
2023-04-27T14:10:49.893Z,35.10
2023-04-27T14:13:19.754Z,36.34
2023-04-27T14:15:47.415Z,35.06
2023-04-27T14:18:15.552Z,35.24
2023-04-27T14:20:45.341Z,35.26
2023-04-27T14:23:13.184Z,33.87
2023-04-27T14:25:42.161Z,34.85
2023-04-27T14:28:12.254Z,35.89
2023-04-27T14:30:40.002Z,37.16
2023-04-27T14:33:07.840Z,37.34
2023-04-27T14:35:37.008Z,35.44
2023-04-27T14:38:05.585Z,34.85
2023-04-27T14:40:33.914Z,34.12
2023-04-27T14:43:02.931Z,34.97
2023-04-27T14:45:36.976Z,36.15
2023-04-27T14:48:11.629Z,35.70
2023-04-27T14:50:39.479Z,35.87
2023-04-27T14:53:07.068Z,34.99
2023-04-27T14:55:34.956Z,37.32
2023-04-27T14:58:04.023Z,37.14
2023-04-27T15:00:31.663Z,37.32
2023-04-27T15:02:59.308Z,36.21
2023-04-27T15:05:26.966Z,35.06
2023-04-27T15:07:54.563Z,34.80
2023-04-27T15:10:22.478Z,34.37
2023-04-27T15:12:50.082Z,34.81
2023-04-27T15:15:19.370Z,35.31
2023-04-27T15:17:46.981Z,35.47
2023-04-27T15:20:15.019Z,35.20
2023-04-27T15:22:42.702Z,33.89
2023-04-27T15:25:11.217Z,34.61
2023-04-27T15:27:39.927Z,34.15
2023-04-27T15:30:08.836Z,34.89
2023-04-27T15:32:37.921Z,35.97
2023-04-27T15:35:06.723Z,35.20
2023-04-27T15:37:36.581Z,35.10
2023-04-27T15:40:07.362Z,35.88
2023-04-27T15:42:35.052Z,34.73
2023-04-27T15:45:02.832Z,35.62
2023-04-27T15:47:30.609Z,34.85
2023-04-27T15:49:59.540Z,35.81
2023-04-27T15:52:27.370Z,36.66
2023-04-27T15:54:55.768Z,35.68
2023-04-27T15:57:23.416Z,36.83
2023-04-27T15:59:51.013Z,35.30
2023-04-27T16:02:19.353Z,35.15
2023-04-27T16:04:47.081Z,34.67
2023-04-27T16:07:16.110Z,34.08
2023-04-27T16:09:43.793Z,36.41
2023-04-27T16:12:11.452Z,36.70
2023-04-27T16:14:39.205Z,40.20
2023-04-27T16:17:06.846Z,38.14
2023-04-27T16:19:34.466Z,36.27
2023-04-27T16:22:04.029Z,37.28
2023-04-27T16:24:33.025Z,37.89
2023-04-27T16:27:01.285Z,36.71
2023-04-27T16:29:29.376Z,37.38
2023-04-27T16:31:57.090Z,36.19
2023-04-27T16:34:24.892Z,36.31
2023-04-27T16:36:52.562Z,37.58
2023-04-27T16:39:20.326Z,39.50
2023-04-27T16:41:49.764Z,40.90
2023-04-27T16:44:17.513Z,40.55
2023-04-27T16:46:45.475Z,36.76
2023-04-27T16:49:13.876Z,37.40
2023-04-27T16:51:42.207Z,41.50
2023-04-27T16:54:10.492Z,42.56
2023-04-27T16:56:38.153Z,42.37
2023-04-27T16:59:07.627Z,40.77
2023-04-27T17:01:35.402Z,40.50
2023-04-27T17:04:03.409Z,39.50
2023-04-27T17:06:31.381Z,39.92
2023-04-27T17:08:59.492Z,45.21
2023-04-27T17:11:27.392Z,45.74
2023-04-27T17:13:55.421Z,47.74
2023-04-27T17:16:25.014Z,49.33
2023-04-27T17:18:52.984Z,51.03
2023-04-27T17:21:22.614Z,52.97
2023-04-27T17:23:52.008Z,52.33
2023-04-27T17:26:21.440Z,56.47
2023-04-27T17:28:50.474Z,56.42
2023-04-27T17:31:18.192Z,57.23
2023-04-27T17:33:47.360Z,57.93
2023-04-27T17:36:15.143Z,59.02
2023-04-27T17:38:42.866Z,60.36
2023-04-27T17:41:10.995Z,60.93
2023-04-27T17:43:38.731Z,61.95
2023-04-27T17:46:08.027Z,61.90
2023-04-27T17:48:36.202Z,66.03
2023-04-27T17:51:05.471Z,67.93
2023-04-27T17:53:33.149Z,68.54
2023-04-27T17:56:00.956Z,68.81
2023-04-27T17:58:28.780Z,69.49
2023-04-27T18:00:56.405Z,72.39
2023-04-27T18:03:24.405Z,72.60
2023-04-27T18:05:52.606Z,75.66
2023-04-27T18:08:21.541Z,79.38
2023-04-27T18:10:49.218Z,78.96
2023-04-27T18:13:17.250Z,82.48
2023-04-27T18:15:44.910Z,84.04
2023-04-27T18:18:16.748Z,86.61
2023-04-27T18:20:44.899Z,87.51
2023-04-27T18:23:12.594Z,90.88
2023-04-27T18:25:41.595Z,89.60
2023-04-27T18:28:09.957Z,89.35
2023-04-27T18:30:37.644Z,93.72
2023-04-27T18:33:05.517Z,92.19
2023-04-27T18:35:33.265Z,92.05
2023-04-27T18:38:00.859Z,91.83
2023-04-27T18:40:28.590Z,91.89
2023-04-27T18:42:57.632Z,93.48
2023-04-27T18:45:25.396Z,92.21
2023-04-27T18:47:53.026Z,91.94
2023-04-27T18:50:20.824Z,93.54
2023-04-27T18:52:48.476Z,94.57
2023-04-27T18:55:16.797Z,96.05
2023-04-27T18:57:44.518Z,94.45
2023-04-27T19:00:14.949Z,94.99
2023-04-27T19:02:42.615Z,95.40
2023-04-27T19:05:13.478Z,95.09
2023-04-27T19:07:41.405Z,90.26
2023-04-27T19:10:10.323Z,84.57
2023-04-27T19:12:38.387Z,86.64
2023-04-27T19:15:06.626Z,84.87
2023-04-27T19:17:35.776Z,77.41
2023-04-27T19:20:03.617Z,72.98
2023-04-27T19:22:34.098Z,70.17
2023-04-27T19:25:01.983Z,66.73
2023-04-27T19:27:29.986Z,62.87
2023-04-27T19:29:58.587Z,62.82
2023-04-27T19:32:27.693Z,61.37
2023-04-27T19:34:57.851Z,62.45
2023-04-27T19:37:26.035Z,61.49
2023-04-27T19:39:53.706Z,61.30
2023-04-27T19:42:21.347Z,61.40
2023-04-27T19:44:49.028Z,60.43
2023-04-27T19:47:16.805Z,61.54
2023-04-27T19:49:44.548Z,65.05
2023-04-27T19:52:13.910Z,62.26
2023-04-27T19:54:41.684Z,62.20
2023-04-27T19:57:09.362Z,61.14
2023-04-27T19:59:37.798Z,62.58
2023-04-27T20:02:05.471Z,63.86
2023-04-27T20:04:33.457Z,63.60
2023-04-27T20:07:03.254Z,63.09
2023-04-27T20:09:33.664Z,64.90
2023-04-27T20:12:01.467Z,64.87
2023-04-27T20:14:31.183Z,62.37
2023-04-27T20:16:58.824Z,63.59
2023-04-27T20:19:26.508Z,62.77
2023-04-27T20:21:54.414Z,63.76
2023-04-27T20:24:22.554Z,63.79
2023-04-27T20:26:51.535Z,63.96
2023-04-27T20:29:19.227Z,63.86
2023-04-27T20:31:48.411Z,64.34
2023-04-27T20:34:16.271Z,63.49
2023-04-27T20:36:44.388Z,63.37
2023-04-27T20:39:12.970Z,62.28
2023-04-27T20:41:41.875Z,61.72
2023-04-27T20:44:11.719Z,62.19
2023-04-27T20:46:39.452Z,63.28
2023-04-27T20:49:07.316Z,65.34
2023-04-27T20:51:35.021Z,62.87
2023-04-27T20:54:02.777Z,62.21
2023-04-27T20:56:31.376Z,62.10
2023-04-27T20:58:59.137Z,61.48
2023-04-27T21:01:28.255Z,62.01
2023-04-27T21:03:56.024Z,63.53
2023-04-27T21:06:23.731Z,62.95
2023-04-27T21:08:51.573Z,62.88
2023-04-27T21:11:20.477Z,61.51
2023-04-27T21:13:48.087Z,62.09
2023-04-27T21:16:15.852Z,59.81
2023-04-27T21:18:44.905Z,60.72
2023-04-27T21:21:12.524Z,62.41
2023-04-27T21:23:40.651Z,59.90
2023-04-27T21:26:08.885Z,61.39
2023-04-27T21:28:36.924Z,60.68
2023-04-27T21:31:04.550Z,59.95
2023-04-27T21:33:32.271Z,59.37
2023-04-27T21:36:03.625Z,59.86
2023-04-27T21:38:31.413Z,61.66
2023-04-27T21:40:59.792Z,59.74
2023-04-27T21:43:27.503Z,59.15
2023-04-27T21:45:55.335Z,58.73
2023-04-27T21:48:23.012Z,59.08
2023-04-27T21:50:51.291Z,60.53
2023-04-27T21:53:20.250Z,59.09
2023-04-27T21:55:49.338Z,59.99
2023-04-27T21:58:17.158Z,59.44
2023-04-27T22:00:44.844Z,58.61
2023-04-27T22:03:12.861Z,60.52
2023-04-27T22:05:40.627Z,60.79
2023-04-27T22:08:08.956Z,61.92
2023-04-27T22:10:38.037Z,60.53
2023-04-27T22:13:17.709Z,61.31
2023-04-27T22:15:46.463Z,61.28
2023-04-27T22:18:14.790Z,58.62
2023-04-27T22:20:42.929Z,58.27
2023-04-27T22:23:11.481Z,59.38
2023-04-27T22:25:42.722Z,59.11
2023-04-27T22:28:11.029Z,60.24
2023-04-27T22:30:39.848Z,58.70
2023-04-27T22:33:08.017Z,59.12
2023-04-27T22:35:36.885Z,60.17
2023-04-27T22:38:04.685Z,60.21
2023-04-27T22:40:32.338Z,58.86
2023-04-27T22:43:01.637Z,59.63
2023-04-27T22:45:29.287Z,59.69
2023-04-27T22:47:57.514Z,59.80
2023-04-27T22:50:25.215Z,60.76
2023-04-27T22:52:53.927Z,59.37
2023-04-27T22:55:22.199Z,59.53
2023-04-27T22:57:50.701Z,60.62
2023-04-27T23:00:19.830Z,59.58
2023-04-27T23:02:47.724Z,60.51
2023-04-27T23:05:16.523Z,60.33
2023-04-27T23:07:44.325Z,60.18
2023-04-27T23:10:12.905Z,60.94
2023-04-27T23:12:40.658Z,62.31
2023-04-27T23:15:09.386Z,60.36
2023-04-27T23:17:38.452Z,60.54
2023-04-27T23:20:24.057Z,60.96
2023-04-27T23:22:55.513Z,60.70
2023-04-27T23:25:23.214Z,60.37
2023-04-27T23:27:52.420Z,59.91
2023-04-27T23:30:21.247Z,59.42
2023-04-27T23:32:50.470Z,61.00
2023-04-27T23:35:18.185Z,62.53
2023-04-27T23:37:45.968Z,62.71
2023-04-27T23:40:14.115Z,63.24
2023-04-27T23:42:41.875Z,63.56
2023-04-27T23:45:10.027Z,63.74
2023-04-27T23:47:37.915Z,61.39
2023-04-27T23:50:07.925Z,63.16
2023-04-27T23:52:35.540Z,62.25
2023-04-27T23:55:03.146Z,61.77
2023-04-27T23:57:30.816Z,64.30
2023-04-27T23:59:58.414Z,60.68
